sensor_id;sensor_type;location;lat;lon;timestamp;P1;durP1;ratioP1;P2;durP2;ratioP2
21505;SDS011;10914;48.886;9.394;2024-03-22T00:00:32;32.13;;;29.92;;
21505;SDS011;10914;48.886;9.394;2024-03-22T00:02:57;32.63;;;30.23;;
21505;SDS011;10914;48.886;9.394;2024-03-22T00:05:22;33.77;;;31.33;;
21505;SDS011;10914;48.886;9.394;2024-03-22T00:07:47;32.77;;;30.47;;
21505;SDS011;10914;48.886;9.394;2024-03-22T00:10:13;34.03;;;31.52;;
21505;SDS011;10914;48.886;9.394;2024-03-22T00:12:38;32.70;;;30.30;;
21505;SDS011;10914;48.886;9.394;2024-03-22T00:15:04;34.00;;;31.50;;
21505;SDS011;10914;48.886;9.394;2024-03-22T00:17:29;34.03;;;31.55;;
21505;SDS011;10914;48.886;9.394;2024-03-22T00:19:55;34.67;;;32.28;;
21505;SDS011;10914;48.886;9.394;2024-03-22T00:22:20;34.60;;;32.22;;
21505;SDS011;10914;48.886;9.394;2024-03-22T00:24:45;35.33;;;32.83;;
21505;SDS011;10914;48.886;9.394;2024-03-22T00:27:11;37.30;;;34.47;;
21505;SDS011;10914;48.886;9.394;2024-03-22T00:29:37;35.47;;;32.97;;
21505;SDS011;10914;48.886;9.394;2024-03-22T00:32:02;36.80;;;34.10;;
21505;SDS011;10914;48.886;9.394;2024-03-22T00:34:27;34.70;;;32.30;;
21505;SDS011;10914;48.886;9.394;2024-03-22T00:36:53;35.83;;;33.20;;
21505;SDS011;10914;48.886;9.394;2024-03-22T00:39:18;37.17;;;34.53;;
21505;SDS011;10914;48.886;9.394;2024-03-22T00:41:43;35.77;;;33.30;;
21505;SDS011;10914;48.886;9.394;2024-03-22T00:44:08;39.60;;;36.53;;
21505;SDS011;10914;48.886;9.394;2024-03-22T00:46:33;39.95;;;37.15;;
21505;SDS011;10914;48.886;9.394;2024-03-22T00:48:58;39.08;;;36.33;;
21505;SDS011;10914;48.886;9.394;2024-03-22T00:51:25;38.15;;;35.45;;
21505;SDS011;10914;48.886;9.394;2024-03-22T00:53:50;40.65;;;37.95;;
21505;SDS011;10914;48.886;9.394;2024-03-22T00:56:16;40.45;;;37.50;;
21505;SDS011;10914;48.886;9.394;2024-03-22T00:58:41;50.27;;;47.00;;
21505;SDS011;10914;48.886;9.394;2024-03-22T01:01:06;42.63;;;39.53;;
21505;SDS011;10914;48.886;9.394;2024-03-22T01:03:31;44.17;;;40.97;;
21505;SDS011;10914;48.886;9.394;2024-03-22T01:05:56;42.33;;;39.43;;
21505;SDS011;10914;48.886;9.394;2024-03-22T01:08:22;42.33;;;39.53;;
21505;SDS011;10914;48.886;9.394;2024-03-22T01:10:47;41.17;;;38.05;;
21505;SDS011;10914;48.886;9.394;2024-03-22T01:13:12;39.55;;;36.92;;
21505;SDS011;10914;48.886;9.394;2024-03-22T01:15:37;41.13;;;38.42;;
21505;SDS011;10914;48.886;9.394;2024-03-22T01:18:03;41.92;;;39.15;;
21505;SDS011;10914;48.886;9.394;2024-03-22T01:20:28;42.03;;;39.03;;
21505;SDS011;10914;48.886;9.394;2024-03-22T01:22:53;40.33;;;37.50;;
21505;SDS011;10914;48.886;9.394;2024-03-22T01:25:18;39.75;;;36.88;;
21505;SDS011;10914;48.886;9.394;2024-03-22T01:27:43;39.20;;;36.50;;
21505;SDS011;10914;48.886;9.394;2024-03-22T01:30:09;39.38;;;36.58;;
21505;SDS011;10914;48.886;9.394;2024-03-22T01:32:35;37.90;;;35.13;;
21505;SDS011;10914;48.886;9.394;2024-03-22T01:35:00;39.15;;;36.25;;
21505;SDS011;10914;48.886;9.394;2024-03-22T01:37:25;40.10;;;37.30;;
21505;SDS011;10914;48.886;9.394;2024-03-22T01:39:50;39.80;;;36.73;;
21505;SDS011;10914;48.886;9.394;2024-03-22T01:42:15;39.05;;;36.30;;
21505;SDS011;10914;48.886;9.394;2024-03-22T01:44:40;40.67;;;37.80;;
21505;SDS011;10914;48.886;9.394;2024-03-22T01:47:06;42.37;;;39.37;;
21505;SDS011;10914;48.886;9.394;2024-03-22T01:49:31;43.45;;;40.45;;
21505;SDS011;10914;48.886;9.394;2024-03-22T01:51:57;44.07;;;40.97;;
21505;SDS011;10914;48.886;9.394;2024-03-22T01:54:22;44.20;;;41.25;;
21505;SDS011;10914;48.886;9.394;2024-03-22T01:56:47;45.90;;;42.55;;
21505;SDS011;10914;48.886;9.394;2024-03-22T01:59:12;47.72;;;44.53;;
21505;SDS011;10914;48.886;9.394;2024-03-22T02:01:38;48.15;;;44.78;;
21505;SDS011;10914;48.886;9.394;2024-03-22T02:04:04;48.72;;;45.60;;
21505;SDS011;10914;48.886;9.394;2024-03-22T02:06:29;47.27;;;44.17;;
21505;SDS011;10914;48.886;9.394;2024-03-22T02:08:55;49.78;;;46.67;;
21505;SDS011;10914;48.886;9.394;2024-03-22T02:11:20;48.88;;;45.58;;
21505;SDS011;10914;48.886;9.394;2024-03-22T02:13:45;50.88;;;47.63;;
21505;SDS011;10914;48.886;9.394;2024-03-22T02:16:10;51.80;;;47.90;;
21505;SDS011;10914;48.886;9.394;2024-03-22T02:18:36;54.50;;;50.80;;
21505;SDS011;10914;48.886;9.394;2024-03-22T02:21:01;54.63;;;50.77;;
21505;SDS011;10914;48.886;9.394;2024-03-22T02:23:32;51.88;;;48.40;;
21505;SDS011;10914;48.886;9.394;2024-03-22T02:25:58;55.53;;;51.63;;
21505;SDS011;10914;48.886;9.394;2024-03-22T02:28:23;51.38;;;47.97;;
21505;SDS011;10914;48.886;9.394;2024-03-22T02:30:48;49.37;;;46.07;;
21505;SDS011;10914;48.886;9.394;2024-03-22T02:33:13;46.42;;;43.30;;
21505;SDS011;10914;48.886;9.394;2024-03-22T02:35:38;50.03;;;46.50;;
21505;SDS011;10914;48.886;9.394;2024-03-22T02:38:03;48.67;;;45.58;;
21505;SDS011;10914;48.886;9.394;2024-03-22T02:40:28;47.47;;;44.25;;
21505;SDS011;10914;48.886;9.394;2024-03-22T02:42:54;47.58;;;44.55;;
21505;SDS011;10914;48.886;9.394;2024-03-22T02:45:19;48.10;;;44.90;;
21505;SDS011;10914;48.886;9.394;2024-03-22T02:47:44;53.38;;;49.97;;
21505;SDS011;10914;48.886;9.394;2024-03-22T02:50:09;58.83;;;54.93;;
21505;SDS011;10914;48.886;9.394;2024-03-22T02:52:34;60.40;;;56.50;;
21505;SDS011;10914;48.886;9.394;2024-03-22T02:54:59;62.63;;;58.53;;
21505;SDS011;10914;48.886;9.394;2024-03-22T02:57:24;60.33;;;56.53;;
21505;SDS011;10914;48.886;9.394;2024-03-22T02:59:50;63.75;;;59.75;;
21505;SDS011;10914;48.886;9.394;2024-03-22T03:02:15;63.85;;;59.83;;
21505;SDS011;10914;48.886;9.394;2024-03-22T03:04:40;62.03;;;58.10;;
21505;SDS011;10914;48.886;9.394;2024-03-22T03:07:05;64.50;;;60.63;;
21505;SDS011;10914;48.886;9.394;2024-03-22T03:09:30;61.15;;;57.33;;
21505;SDS011;10914;48.886;9.394;2024-03-22T03:11:55;71.20;;;66.57;;
21505;SDS011;10914;48.886;9.394;2024-03-22T03:14:20;66.45;;;62.35;;
21505;SDS011;10914;48.886;9.394;2024-03-22T03:16:46;64.97;;;60.88;;
21505;SDS011;10914;48.886;9.394;2024-03-22T03:19:11;73.57;;;69.07;;
21505;SDS011;10914;48.886;9.394;2024-03-22T03:21:36;74.70;;;69.95;;
21505;SDS011;10914;48.886;9.394;2024-03-22T03:24:01;63.60;;;59.40;;
21505;SDS011;10914;48.886;9.394;2024-03-22T03:26:26;65.82;;;61.80;;
21505;SDS011;10914;48.886;9.394;2024-03-22T03:28:51;68.83;;;64.40;;
21505;SDS011;10914;48.886;9.394;2024-03-22T03:31:17;75.20;;;70.83;;
21505;SDS011;10914;48.886;9.394;2024-03-22T03:33:42;73.23;;;68.97;;
21505;SDS011;10914;48.886;9.394;2024-03-22T03:36:07;67.82;;;63.70;;
21505;SDS011;10914;48.886;9.394;2024-03-22T03:38:32;65.03;;;61.00;;
21505;SDS011;10914;48.886;9.394;2024-03-22T03:40:57;59.33;;;55.42;;
21505;SDS011;10914;48.886;9.394;2024-03-22T03:43:22;64.15;;;60.25;;
21505;SDS011;10914;48.886;9.394;2024-03-22T03:45:47;65.23;;;61.23;;
21505;SDS011;10914;48.886;9.394;2024-03-22T03:48:13;55.90;;;52.20;;
21505;SDS011;10914;48.886;9.394;2024-03-22T03:50:38;56.10;;;52.42;;
21505;SDS011;10914;48.886;9.394;2024-03-22T03:53:03;57.20;;;53.07;;
21505;SDS011;10914;48.886;9.394;2024-03-22T03:55:28;53.47;;;49.77;;
21505;SDS011;10914;48.886;9.394;2024-03-22T03:57:53;62.13;;;57.75;;
21505;SDS011;10914;48.886;9.394;2024-03-22T04:00:19;54.47;;;50.87;;
21505;SDS011;10914;48.886;9.394;2024-03-22T04:02:44;51.53;;;47.95;;
21505;SDS011;10914;48.886;9.394;2024-03-22T04:05:09;52.80;;;49.30;;
21505;SDS011;10914;48.886;9.394;2024-03-22T04:07:34;52.93;;;49.27;;
21505;SDS011;10914;48.886;9.394;2024-03-22T04:10:00;54.95;;;51.22;;
21505;SDS011;10914;48.886;9.394;2024-03-22T04:12:26;53.50;;;49.72;;
21505;SDS011;10914;48.886;9.394;2024-03-22T04:14:51;56.88;;;52.75;;
21505;SDS011;10914;48.886;9.394;2024-03-22T04:17:16;50.88;;;47.45;;
21505;SDS011;10914;48.886;9.394;2024-03-22T04:19:41;52.95;;;49.47;;
21505;SDS011;10914;48.886;9.394;2024-03-22T04:22:06;62.10;;;57.85;;
21505;SDS011;10914;48.886;9.394;2024-03-22T04:24:31;56.40;;;52.65;;
21505;SDS011;10914;48.886;9.394;2024-03-22T04:26:56;53.38;;;49.60;;
21505;SDS011;10914;48.886;9.394;2024-03-22T04:29:22;51.28;;;47.55;;
21505;SDS011;10914;48.886;9.394;2024-03-22T04:31:47;55.50;;;51.72;;
21505;SDS011;10914;48.886;9.394;2024-03-22T04:34:12;60.85;;;56.97;;
21505;SDS011;10914;48.886;9.394;2024-03-22T04:36:37;64.70;;;60.55;;
21505;SDS011;10914;48.886;9.394;2024-03-22T04:39:02;106.07;;;99.57;;
21505;SDS011;10914;48.886;9.394;2024-03-22T04:41:28;90.93;;;85.25;;
21505;SDS011;10914;48.886;9.394;2024-03-22T04:43:53;109.80;;;102.80;;
21505;SDS011;10914;48.886;9.394;2024-03-22T04:46:19;87.13;;;81.40;;
21505;SDS011;10914;48.886;9.394;2024-03-22T04:48:44;87.80;;;82.43;;
21505;SDS011;10914;48.886;9.394;2024-03-22T04:51:09;81.73;;;76.47;;
21505;SDS011;10914;48.886;9.394;2024-03-22T04:53:34;92.65;;;86.60;;
21505;SDS011;10914;48.886;9.394;2024-03-22T04:55:59;71.20;;;66.60;;
21505;SDS011;10914;48.886;9.394;2024-03-22T04:58:24;65.20;;;60.45;;
21505;SDS011;10914;48.886;9.394;2024-03-22T05:00:55;64.95;;;60.70;;
21505;SDS011;10914;48.886;9.394;2024-03-22T05:03:21;54.17;;;50.28;;
21505;SDS011;10914;48.886;9.394;2024-03-22T05:05:46;52.22;;;48.53;;
21505;SDS011;10914;48.886;9.394;2024-03-22T05:08:11;49.97;;;46.45;;
21505;SDS011;10914;48.886;9.394;2024-03-22T05:10:36;58.70;;;54.80;;
21505;SDS011;10914;48.886;9.394;2024-03-22T05:13:02;50.77;;;47.07;;
21505;SDS011;10914;48.886;9.394;2024-03-22T05:15:27;51.45;;;47.83;;
21505;SDS011;10914;48.886;9.394;2024-03-22T05:17:53;50.90;;;46.97;;
21505;SDS011;10914;48.886;9.394;2024-03-22T05:20:19;48.85;;;45.45;;
21505;SDS011;10914;48.886;9.394;2024-03-22T05:22:44;48.35;;;44.85;;
21505;SDS011;10914;48.886;9.394;2024-03-22T05:25:09;47.20;;;43.80;;
21505;SDS011;10914;48.886;9.394;2024-03-22T05:27:35;61.90;;;57.00;;
21505;SDS011;10914;48.886;9.394;2024-03-22T05:30:00;56.47;;;52.63;;
21505;SDS011;10914;48.886;9.394;2024-03-22T05:32:26;54.13;;;50.03;;
21505;SDS011;10914;48.886;9.394;2024-03-22T05:34:51;49.38;;;45.70;;
21505;SDS011;10914;48.886;9.394;2024-03-22T05:37:16;46.00;;;42.67;;
21505;SDS011;10914;48.886;9.394;2024-03-22T05:39:41;46.17;;;42.57;;
21505;SDS011;10914;48.886;9.394;2024-03-22T05:42:07;46.60;;;43.20;;
21505;SDS011;10914;48.886;9.394;2024-03-22T05:44:32;47.45;;;44.15;;
21505;SDS011;10914;48.886;9.394;2024-03-22T05:46:57;47.97;;;44.25;;
21505;SDS011;10914;48.886;9.394;2024-03-22T05:49:22;46.17;;;42.73;;
21505;SDS011;10914;48.886;9.394;2024-03-22T05:51:48;43.20;;;39.97;;
21505;SDS011;10914;48.886;9.394;2024-03-22T05:54:13;41.97;;;38.88;;
21505;SDS011;10914;48.886;9.394;2024-03-22T05:56:38;38.07;;;35.20;;
21505;SDS011;10914;48.886;9.394;2024-03-22T05:59:04;37.30;;;34.42;;
21505;SDS011;10914;48.886;9.394;2024-03-22T06:01:29;41.13;;;38.13;;
21505;SDS011;10914;48.886;9.394;2024-03-22T06:03:54;43.42;;;40.13;;
21505;SDS011;10914;48.886;9.394;2024-03-22T06:06:19;40.50;;;37.60;;
21505;SDS011;10914;48.886;9.394;2024-03-22T06:08:49;45.13;;;41.63;;
21505;SDS011;10914;48.886;9.394;2024-03-22T06:11:17;44.78;;;41.28;;
21505;SDS011;10914;48.886;9.394;2024-03-22T06:13:42;39.42;;;36.58;;
21505;SDS011;10914;48.886;9.394;2024-03-22T06:16:07;41.47;;;38.33;;
21505;SDS011;10914;48.886;9.394;2024-03-22T06:18:32;41.53;;;38.28;;
21505;SDS011;10914;48.886;9.394;2024-03-22T06:20:58;40.70;;;37.78;;
21505;SDS011;10914;48.886;9.394;2024-03-22T06:23:23;40.67;;;37.28;;
21505;SDS011;10914;48.886;9.394;2024-03-22T06:25:51;38.65;;;35.65;;
21505;SDS011;10914;48.886;9.394;2024-03-22T06:28:17;38.58;;;35.58;;
21505;SDS011;10914;48.886;9.394;2024-03-22T06:30:42;41.42;;;37.95;;
21505;SDS011;10914;48.886;9.394;2024-03-22T06:33:07;40.75;;;37.38;;
21505;SDS011;10914;48.886;9.394;2024-03-22T06:35:32;42.37;;;38.87;;
21505;SDS011;10914;48.886;9.394;2024-03-22T06:37:57;39.60;;;36.20;;
21505;SDS011;10914;48.886;9.394;2024-03-22T06:40:23;37.45;;;34.53;;
21505;SDS011;10914;48.886;9.394;2024-03-22T06:42:48;38.78;;;35.55;;
21505;SDS011;10914;48.886;9.394;2024-03-22T06:45:13;38.23;;;35.13;;
21505;SDS011;10914;48.886;9.394;2024-03-22T06:47:40;38.08;;;35.03;;
21505;SDS011;10914;48.886;9.394;2024-03-22T06:50:06;38.17;;;34.78;;
21505;SDS011;10914;48.886;9.394;2024-03-22T06:52:31;36.92;;;33.97;;
21505;SDS011;10914;48.886;9.394;2024-03-22T06:54:56;38.27;;;34.90;;
21505;SDS011;10914;48.886;9.394;2024-03-22T06:57:21;38.65;;;35.42;;
21505;SDS011;10914;48.886;9.394;2024-03-22T06:59:46;40.05;;;36.70;;
21505;SDS011;10914;48.886;9.394;2024-03-22T07:02:11;38.47;;;35.42;;
21505;SDS011;10914;48.886;9.394;2024-03-22T07:04:38;38.30;;;35.30;;
21505;SDS011;10914;48.886;9.394;2024-03-22T07:07:04;39.10;;;35.63;;
21505;SDS011;10914;48.886;9.394;2024-03-22T07:09:29;39.92;;;36.42;;
21505;SDS011;10914;48.886;9.394;2024-03-22T07:11:55;42.22;;;38.35;;
21505;SDS011;10914;48.886;9.394;2024-03-22T07:14:20;44.63;;;40.83;;
21505;SDS011;10914;48.886;9.394;2024-03-22T07:16:46;44.50;;;41.00;;
21505;SDS011;10914;48.886;9.394;2024-03-22T07:19:11;48.43;;;44.57;;
21505;SDS011;10914;48.886;9.394;2024-03-22T07:21:36;45.20;;;41.53;;
21505;SDS011;10914;48.886;9.394;2024-03-22T07:24:01;44.03;;;40.45;;
21505;SDS011;10914;48.886;9.394;2024-03-22T07:26:27;43.00;;;39.58;;
21505;SDS011;10914;48.886;9.394;2024-03-22T07:28:52;41.47;;;37.90;;
21505;SDS011;10914;48.886;9.394;2024-03-22T07:31:17;39.35;;;36.28;;
21505;SDS011;10914;48.886;9.394;2024-03-22T07:33:43;40.42;;;37.00;;
21505;SDS011;10914;48.886;9.394;2024-03-22T07:36:08;39.55;;;36.13;;
21505;SDS011;10914;48.886;9.394;2024-03-22T07:38:33;40.97;;;37.37;;
21505;SDS011;10914;48.886;9.394;2024-03-22T07:40:58;40.72;;;37.35;;
21505;SDS011;10914;48.886;9.394;2024-03-22T07:43:23;39.93;;;36.53;;
21505;SDS011;10914;48.886;9.394;2024-03-22T07:45:49;39.90;;;36.50;;
21505;SDS011;10914;48.886;9.394;2024-03-22T07:48:14;40.75;;;37.33;;
21505;SDS011;10914;48.886;9.394;2024-03-22T07:50:39;40.03;;;36.83;;
21505;SDS011;10914;48.886;9.394;2024-03-22T07:53:04;39.33;;;36.22;;
21505;SDS011;10914;48.886;9.394;2024-03-22T07:55:30;38.65;;;35.67;;
21505;SDS011;10914;48.886;9.394;2024-03-22T07:57:55;37.42;;;34.50;;
21505;SDS011;10914;48.886;9.394;2024-03-22T08:00:22;37.08;;;34.08;;
21505;SDS011;10914;48.886;9.394;2024-03-22T08:02:50;38.28;;;35.63;;
21505;SDS011;10914;48.886;9.394;2024-03-22T08:05:15;45.10;;;41.90;;
21505;SDS011;10914;48.886;9.394;2024-03-22T08:07:40;44.45;;;41.35;;
21505;SDS011;10914;48.886;9.394;2024-03-22T08:10:05;40.22;;;37.42;;
21505;SDS011;10914;48.886;9.394;2024-03-22T08:12:31;38.53;;;35.55;;
21505;SDS011;10914;48.886;9.394;2024-03-22T08:14:56;36.20;;;33.40;;
21505;SDS011;10914;48.886;9.394;2024-03-22T08:17:21;37.58;;;34.50;;
21505;SDS011;10914;48.886;9.394;2024-03-22T08:19:46;36.03;;;33.35;;
21505;SDS011;10914;48.886;9.394;2024-03-22T08:22:11;41.97;;;38.33;;
21505;SDS011;10914;48.886;9.394;2024-03-22T08:24:36;37.47;;;34.40;;
21505;SDS011;10914;48.886;9.394;2024-03-22T08:27:02;35.55;;;32.90;;
21505;SDS011;10914;48.886;9.394;2024-03-22T08:29:28;36.38;;;33.58;;
21505;SDS011;10914;48.886;9.394;2024-03-22T08:31:53;36.30;;;33.50;;
21505;SDS011;10914;48.886;9.394;2024-03-22T08:34:18;35.73;;;32.83;;
21505;SDS011;10914;48.886;9.394;2024-03-22T08:36:43;35.42;;;32.70;;
21505;SDS011;10914;48.886;9.394;2024-03-22T08:39:09;36.23;;;33.30;;
21505;SDS011;10914;48.886;9.394;2024-03-22T08:41:35;36.15;;;33.28;;
21505;SDS011;10914;48.886;9.394;2024-03-22T08:44:00;36.50;;;33.80;;
21505;SDS011;10914;48.886;9.394;2024-03-22T08:46:25;36.53;;;33.40;;
21505;SDS011;10914;48.886;9.394;2024-03-22T08:48:53;36.42;;;33.33;;
21505;SDS011;10914;48.886;9.394;2024-03-22T08:51:18;35.08;;;32.28;;
21505;SDS011;10914;48.886;9.394;2024-03-22T08:53:43;36.55;;;33.55;;
21505;SDS011;10914;48.886;9.394;2024-03-22T08:56:09;35.37;;;32.57;;
21505;SDS011;10914;48.886;9.394;2024-03-22T08:58:34;36.03;;;33.17;;
21505;SDS011;10914;48.886;9.394;2024-03-22T09:00:59;36.40;;;33.60;;
21505;SDS011;10914;48.886;9.394;2024-03-22T09:03:24;37.88;;;34.97;;
21505;SDS011;10914;48.886;9.394;2024-03-22T09:05:52;37.45;;;34.70;;
21505;SDS011;10914;48.886;9.394;2024-03-22T09:08:18;38.28;;;35.45;;
21505;SDS011;10914;48.886;9.394;2024-03-22T09:10:44;38.92;;;35.83;;
21505;SDS011;10914;48.886;9.394;2024-03-22T09:13:10;39.58;;;36.78;;
21505;SDS011;10914;48.886;9.394;2024-03-22T09:15:37;39.58;;;36.92;;
21505;SDS011;10914;48.886;9.394;2024-03-22T09:18:02;40.20;;;37.30;;
21505;SDS011;10914;48.886;9.394;2024-03-22T09:20:27;38.65;;;35.75;;
21505;SDS011;10914;48.886;9.394;2024-03-22T09:22:53;39.10;;;36.40;;
21505;SDS011;10914;48.886;9.394;2024-03-22T09:25:18;39.80;;;36.90;;
21505;SDS011;10914;48.886;9.394;2024-03-22T09:27:43;41.15;;;38.28;;
21505;SDS011;10914;48.886;9.394;2024-03-22T09:30:09;38.00;;;35.43;;
21505;SDS011;10914;48.886;9.394;2024-03-22T09:32:34;39.00;;;36.30;;
21505;SDS011;10914;48.886;9.394;2024-03-22T09:35:00;36.47;;;33.88;;
21505;SDS011;10914;48.886;9.394;2024-03-22T09:37:25;34.42;;;31.90;;
21505;SDS011;10914;48.886;9.394;2024-03-22T09:39:50;34.75;;;31.88;;
21505;SDS011;10914;48.886;9.394;2024-03-22T09:42:16;33.85;;;30.83;;
21505;SDS011;10914;48.886;9.394;2024-03-22T09:44:42;33.67;;;31.00;;
21505;SDS011;10914;48.886;9.394;2024-03-22T09:47:09;34.85;;;32.03;;
21505;SDS011;10914;48.886;9.394;2024-03-22T09:49:35;34.13;;;31.63;;
21505;SDS011;10914;48.886;9.394;2024-03-22T09:52:00;35.78;;;32.83;;
21505;SDS011;10914;48.886;9.394;2024-03-22T09:54:27;67.95;;;63.70;;
21505;SDS011;10914;48.886;9.394;2024-03-22T09:56:52;33.17;;;30.90;;
21505;SDS011;10914;48.886;9.394;2024-03-22T09:59:18;33.47;;;30.92;;
21505;SDS011;10914;48.886;9.394;2024-03-22T10:01:43;33.20;;;30.50;;
21505;SDS011;10914;48.886;9.394;2024-03-22T10:04:09;31.10;;;28.85;;
21505;SDS011;10914;48.886;9.394;2024-03-22T10:06:34;33.05;;;30.55;;
21505;SDS011;10914;48.886;9.394;2024-03-22T10:09:00;32.07;;;29.60;;
21505;SDS011;10914;48.886;9.394;2024-03-22T10:11:28;30.90;;;28.70;;
21505;SDS011;10914;48.886;9.394;2024-03-22T10:13:53;31.42;;;28.88;;
21505;SDS011;10914;48.886;9.394;2024-03-22T10:16:20;30.17;;;28.08;;
21505;SDS011;10914;48.886;9.394;2024-03-22T10:18:45;30.83;;;28.73;;
21505;SDS011;10914;48.886;9.394;2024-03-22T10:21:16;30.05;;;28.15;;
21505;SDS011;10914;48.886;9.394;2024-03-22T10:23:43;33.67;;;31.27;;
21505;SDS011;10914;48.886;9.394;2024-03-22T10:26:09;32.03;;;29.85;;
21505;SDS011;10914;48.886;9.394;2024-03-22T10:28:35;30.58;;;28.58;;
21505;SDS011;10914;48.886;9.394;2024-03-22T10:31:00;30.52;;;28.33;;
21505;SDS011;10914;48.886;9.394;2024-03-22T10:33:26;29.10;;;27.17;;
21505;SDS011;10914;48.886;9.394;2024-03-22T10:35:52;30.08;;;27.95;;
21505;SDS011;10914;48.886;9.394;2024-03-22T10:38:18;28.13;;;26.10;;
21505;SDS011;10914;48.886;9.394;2024-03-22T10:40:44;28.67;;;26.58;;
21505;SDS011;10914;48.886;9.394;2024-03-22T10:43:10;27.88;;;25.95;;
21505;SDS011;10914;48.886;9.394;2024-03-22T10:45:35;27.30;;;25.50;;
21505;SDS011;10914;48.886;9.394;2024-03-22T10:48:01;27.35;;;25.45;;
21505;SDS011;10914;48.886;9.394;2024-03-22T10:50:28;28.45;;;26.27;;
21505;SDS011;10914;48.886;9.394;2024-03-22T10:52:56;28.85;;;26.83;;
21505;SDS011;10914;48.886;9.394;2024-03-22T10:55:27;28.40;;;26.20;;
21505;SDS011;10914;48.886;9.394;2024-03-22T10:57:55;26.92;;;25.10;;
21505;SDS011;10914;48.886;9.394;2024-03-22T11:00:27;26.15;;;24.35;;
21505;SDS011;10914;48.886;9.394;2024-03-22T11:02:53;26.20;;;24.50;;
21505;SDS011;10914;48.886;9.394;2024-03-22T11:05:18;26.08;;;24.00;;
21505;SDS011;10914;48.886;9.394;2024-03-22T11:07:44;27.15;;;25.35;;
21505;SDS011;10914;48.886;9.394;2024-03-22T11:10:09;26.42;;;24.45;;
21505;SDS011;10914;48.886;9.394;2024-03-22T11:12:37;24.83;;;22.95;;
21505;SDS011;10914;48.886;9.394;2024-03-22T11:15:02;25.13;;;23.42;;
21505;SDS011;10914;48.886;9.394;2024-03-22T11:17:27;26.73;;;24.67;;
21505;SDS011;10914;48.886;9.394;2024-03-22T11:19:52;26.97;;;25.07;;
21505;SDS011;10914;48.886;9.394;2024-03-22T11:22:18;26.00;;;24.23;;
21505;SDS011;10914;48.886;9.394;2024-03-22T11:24:43;26.40;;;24.60;;
21505;SDS011;10914;48.886;9.394;2024-03-22T11:27:09;26.27;;;24.50;;
21505;SDS011;10914;48.886;9.394;2024-03-22T11:29:35;25.15;;;23.35;;
21505;SDS011;10914;48.886;9.394;2024-03-22T11:32:01;26.90;;;24.90;;
21505;SDS011;10914;48.886;9.394;2024-03-22T11:34:26;25.57;;;23.77;;
21505;SDS011;10914;48.886;9.394;2024-03-22T11:36:53;25.73;;;23.80;;
21505;SDS011;10914;48.886;9.394;2024-03-22T11:39:18;26.70;;;24.60;;
21505;SDS011;10914;48.886;9.394;2024-03-22T11:41:44;25.35;;;23.65;;
21505;SDS011;10914;48.886;9.394;2024-03-22T11:44:09;27.48;;;25.38;;
21505;SDS011;10914;48.886;9.394;2024-03-22T11:46:35;27.13;;;25.25;;
21505;SDS011;10914;48.886;9.394;2024-03-22T11:49:02;26.20;;;24.40;;
21505;SDS011;10914;48.886;9.394;2024-03-22T11:51:29;25.85;;;23.83;;
21505;SDS011;10914;48.886;9.394;2024-03-22T11:53:54;26.10;;;24.10;;
21505;SDS011;10914;48.886;9.394;2024-03-22T11:56:21;26.48;;;24.60;;
21505;SDS011;10914;48.886;9.394;2024-03-22T11:58:47;24.95;;;23.25;;
21505;SDS011;10914;48.886;9.394;2024-03-22T12:01:13;23.75;;;22.05;;
21505;SDS011;10914;48.886;9.394;2024-03-22T12:03:38;24.30;;;22.60;;
21505;SDS011;10914;48.886;9.394;2024-03-22T12:06:05;24.80;;;23.20;;
21505;SDS011;10914;48.886;9.394;2024-03-22T12:08:30;24.60;;;22.73;;
21505;SDS011;10914;48.886;9.394;2024-03-22T12:10:55;24.70;;;23.10;;
21505;SDS011;10914;48.886;9.394;2024-03-22T12:13:21;25.17;;;23.45;;
21505;SDS011;10914;48.886;9.394;2024-03-22T12:15:46;27.67;;;25.40;;
21505;SDS011;10914;48.886;9.394;2024-03-22T12:18:11;26.90;;;25.20;;
21505;SDS011;10914;48.886;9.394;2024-03-22T12:20:36;24.23;;;22.67;;
21505;SDS011;10914;48.886;9.394;2024-03-22T12:23:01;26.53;;;24.53;;
21505;SDS011;10914;48.886;9.394;2024-03-22T12:25:26;25.10;;;23.30;;
21505;SDS011;10914;48.886;9.394;2024-03-22T12:27:51;24.25;;;22.60;;
21505;SDS011;10914;48.886;9.394;2024-03-22T12:30:17;24.77;;;22.97;;
21505;SDS011;10914;48.886;9.394;2024-03-22T12:32:42;25.35;;;23.50;;
21505;SDS011;10914;48.886;9.394;2024-03-22T12:35:07;27.50;;;25.67;;
21505;SDS011;10914;48.886;9.394;2024-03-22T12:37:33;25.52;;;23.77;;
21505;SDS011;10914;48.886;9.394;2024-03-22T12:39:58;24.60;;;23.07;;
21505;SDS011;10914;48.886;9.394;2024-03-22T12:42:23;24.23;;;22.53;;
21505;SDS011;10914;48.886;9.394;2024-03-22T12:44:48;24.33;;;22.40;;
21505;SDS011;10914;48.886;9.394;2024-03-22T12:47:14;23.63;;;21.90;;
21505;SDS011;10914;48.886;9.394;2024-03-22T12:49:39;24.17;;;22.48;;
21505;SDS011;10914;48.886;9.394;2024-03-22T12:52:04;24.00;;;22.33;;
21505;SDS011;10914;48.886;9.394;2024-03-22T12:54:29;23.48;;;21.80;;
21505;SDS011;10914;48.886;9.394;2024-03-22T12:56:54;23.00;;;21.60;;
21505;SDS011;10914;48.886;9.394;2024-03-22T12:59:20;25.53;;;23.83;;
21505;SDS011;10914;48.886;9.394;2024-03-22T13:01:45;25.40;;;23.77;;
21505;SDS011;10914;48.886;9.394;2024-03-22T13:04:10;25.67;;;23.98;;
21505;SDS011;10914;48.886;9.394;2024-03-22T13:06:35;24.90;;;23.35;;
21505;SDS011;10914;48.886;9.394;2024-03-22T13:09:00;25.40;;;23.73;;
21505;SDS011;10914;48.886;9.394;2024-03-22T13:11:29;25.15;;;23.52;;
21505;SDS011;10914;48.886;9.394;2024-03-22T13:13:54;25.80;;;24.17;;
21505;SDS011;10914;48.886;9.394;2024-03-22T13:16:19;24.47;;;22.97;;
21505;SDS011;10914;48.886;9.394;2024-03-22T13:18:44;24.80;;;23.13;;
21505;SDS011;10914;48.886;9.394;2024-03-22T13:21:10;24.45;;;22.67;;
21505;SDS011;10914;48.886;9.394;2024-03-22T13:23:36;27.10;;;25.30;;
21505;SDS011;10914;48.886;9.394;2024-03-22T13:26:04;26.52;;;24.92;;
21505;SDS011;10914;48.886;9.394;2024-03-22T13:28:30;23.83;;;22.27;;
21505;SDS011;10914;48.886;9.394;2024-03-22T13:31:02;26.83;;;25.10;;
21505;SDS011;10914;48.886;9.394;2024-03-22T13:33:28;28.17;;;26.33;;
21505;SDS011;10914;48.886;9.394;2024-03-22T13:35:53;27.95;;;25.83;;
21505;SDS011;10914;48.886;9.394;2024-03-22T13:38:18;27.00;;;25.17;;
21505;SDS011;10914;48.886;9.394;2024-03-22T13:40:43;26.40;;;24.60;;
21505;SDS011;10914;48.886;9.394;2024-03-22T13:43:09;25.67;;;23.77;;
21505;SDS011;10914;48.886;9.394;2024-03-22T13:45:41;24.80;;;22.98;;
21505;SDS011;10914;48.886;9.394;2024-03-22T13:48:10;24.50;;;22.85;;
21505;SDS011;10914;48.886;9.394;2024-03-22T13:50:35;23.85;;;22.27;;
21505;SDS011;10914;48.886;9.394;2024-03-22T13:53:00;24.15;;;22.58;;
21505;SDS011;10914;48.886;9.394;2024-03-22T13:55:25;24.47;;;22.77;;
21505;SDS011;10914;48.886;9.394;2024-03-22T13:57:51;24.57;;;22.87;;
21505;SDS011;10914;48.886;9.394;2024-03-22T14:00:16;25.03;;;23.30;;
21505;SDS011;10914;48.886;9.394;2024-03-22T14:02:42;24.48;;;22.60;;
21505;SDS011;10914;48.886;9.394;2024-03-22T14:05:09;22.85;;;21.45;;
21505;SDS011;10914;48.886;9.394;2024-03-22T14:07:34;31.13;;;28.73;;
21505;SDS011;10914;48.886;9.394;2024-03-22T14:10:00;24.23;;;22.73;;